KGNV/GNV METAR and TAF weather

Enter ICAO airport designator
Station Type Date Time Source
KGNV METAR 2019/06/26 18:53 UTC NOAA

KGNV 261853Z 02008KT 10SM SCT060 33/21 A3012 RMK AO2 SLP194 T03330211


Station Type Date Time Source
KGNV Decoded METAR 2019/06/26 18:53 UTC NOAA

GAINESVILLE REGIONAL AIRPORT , FL, United States (KGNV) 29-42N 082-17W 45M
Jun 26, 2019 - 02:53 PM EDT / 2019.06.26 1853 UTC
Wind: from the NNE (020 degrees) at 9 MPH (8 KT):0
Visibility: 10 mile(s):0
Sky conditions: partly cloudy
Temperature: 91.9 F (33.3 C)
Heat index: 97.3 F (36.3 C):1
Dew Point: 70.0 F (21.1 C)
Relative Humidity: 48%
Pressure (altimeter): 30.12 in. Hg (1019 hPa)
ob: KGNV 261853Z 02008KT 10SM SCT060 33/21 A3012 RMK AO2 SLP194 T03330211
cycle: 19

Station Type Date Time Source
KGNV TAF 2019/06/26 18:34 UTC NOAA

TAF KGNV 261732Z 2618/2718 03009G17KT P6SM BKN040 BKN250
FM270000 04005KT P6SM SCT250
FM270500 00000KT P6SM SCT250
FM271400 04006KT P6SM SCT030 SCT250

Example: see airport list